sensor_id;sensor_type;location;lat;lon;timestamp;temperature;humidity
47765;DHT22;33529;49.242;8.670;2022-08-16T00:00:56;17.70;99.90
47765;DHT22;33529;49.242;8.670;2022-08-16T00:03:23;17.70;99.90
47765;DHT22;33529;49.242;8.670;2022-08-16T00:05:50;17.70;99.90
47765;DHT22;33529;49.242;8.670;2022-08-16T00:08:23;17.60;99.90
47765;DHT22;33529;49.242;8.670;2022-08-16T00:11:02;17.60;99.90
47765;DHT22;33529;49.242;8.670;2022-08-16T00:13:29;17.50;99.90
47765;DHT22;33529;49.242;8.670;2022-08-16T00:16:07;17.50;99.90
47765;DHT22;33529;49.242;8.670;2022-08-16T00:18:54;17.50;99.90
47765;DHT22;33529;49.242;8.670;2022-08-16T00:21:22;17.50;99.90
47765;DHT22;33529;49.242;8.670;2022-08-16T00:23:49;17.40;99.90
47765;DHT22;33529;49.242;8.670;2022-08-16T00:26:16;17.40;99.90
47765;DHT22;33529;49.242;8.670;2022-08-16T00:29:03;17.20;99.90
47765;DHT22;33529;49.242;8.670;2022-08-16T00:31:32;17.20;99.90
47765;DHT22;33529;49.242;8.670;2022-08-16T00:34:20;17.20;99.90
47765;DHT22;33529;49.242;8.670;2022-08-16T00:36:48;17.30;99.90
47765;DHT22;33529;49.242;8.670;2022-08-16T00:39:21;17.30;99.90
47765;DHT22;33529;49.242;8.670;2022-08-16T00:41:49;17.30;99.90
47765;DHT22;33529;49.242;8.670;2022-08-16T00:44:18;17.30;99.90
47765;DHT22;33529;49.242;8.670;2022-08-16T00:46:54;17.30;99.90
47765;DHT22;33529;49.242;8.670;2022-08-16T00:49:33;17.30;99.90
47765;DHT22;33529;49.242;8.670;2022-08-16T00:52:05;17.30;99.90
47765;DHT22;33529;49.242;8.670;2022-08-16T00:54:52;17.10;99.90
47765;DHT22;33529;49.242;8.670;2022-08-16T00:57:21;17.10;99.90
47765;DHT22;33529;49.242;8.670;2022-08-16T00:59:49;16.90;99.90
47765;DHT22;33529;49.242;8.670;2022-08-16T01:02:49;16.90;99.90
47765;DHT22;33529;49.242;8.670;2022-08-16T01:05:17;17.00;99.90
47765;DHT22;33529;49.242;8.670;2022-08-16T01:07:50;17.00;99.90
47765;DHT22;33529;49.242;8.670;2022-08-16T01:10:24;17.00;99.90
47765;DHT22;33529;49.242;8.670;2022-08-16T01:13:23;17.10;99.90
47765;DHT22;33529;49.242;8.670;2022-08-16T01:16:02;17.00;99.90
47765;DHT22;33529;49.242;8.670;2022-08-16T01:18:49;17.00;99.90
47765;DHT22;33529;49.242;8.670;2022-08-16T01:21:49;17.00;99.90
47765;DHT22;33529;49.242;8.670;2022-08-16T01:27:22;17.00;99.90
47765;DHT22;33529;49.242;8.670;2022-08-16T01:30:11;17.00;99.90
47765;DHT22;33529;49.242;8.670;2022-08-16T01:32:53;16.90;99.90
47765;DHT22;33529;49.242;8.670;2022-08-16T01:35:50;16.90;99.90
47765;DHT22;33529;49.242;8.670;2022-08-16T01:38:32;17.00;99.90
47765;DHT22;33529;49.242;8.670;2022-08-16T01:41:06;17.00;99.90
47765;DHT22;33529;49.242;8.670;2022-08-16T01:43:36;16.90;99.90
47765;DHT22;33529;49.242;8.670;2022-08-16T01:46:08;16.90;99.90
47765;DHT22;33529;49.242;8.670;2022-08-16T01:48:59;16.80;99.90
47765;DHT22;33529;49.242;8.670;2022-08-16T01:51:28;16.80;99.90
47765;DHT22;33529;49.242;8.670;2022-08-16T01:53:56;16.80;99.90
47765;DHT22;33529;49.242;8.670;2022-08-16T01:56:29;16.80;99.90
47765;DHT22;33529;49.242;8.670;2022-08-16T01:58:59;16.70;99.90
47765;DHT22;33529;49.242;8.670;2022-08-16T02:01:27;16.70;99.90
47765;DHT22;33529;49.242;8.670;2022-08-16T02:03:58;16.50;99.90
47765;DHT22;33529;49.242;8.670;2022-08-16T02:06:38;16.50;99.90
47765;DHT22;33529;49.242;8.670;2022-08-16T02:09:14;16.50;99.90
47765;DHT22;33529;49.242;8.670;2022-08-16T02:11:49;16.60;99.90
47765;DHT22;33529;49.242;8.670;2022-08-16T02:14:21;16.60;99.90
47765;DHT22;33529;49.242;8.670;2022-08-16T02:16:54;16.60;99.90
47765;DHT22;33529;49.242;8.670;2022-08-16T02:19:23;16.60;99.90
47765;DHT22;33529;49.242;8.670;2022-08-16T02:22:16;16.60;99.90
47765;DHT22;33529;49.242;8.670;2022-08-16T02:25:05;16.60;99.90
47765;DHT22;33529;49.242;8.670;2022-08-16T02:27:34;16.60;99.90
47765;DHT22;33529;49.242;8.670;2022-08-16T02:30:04;16.50;99.90
47765;DHT22;33529;49.242;8.670;2022-08-16T02:32:32;16.50;99.90
47765;DHT22;33529;49.242;8.670;2022-08-16T02:35:23;16.50;99.90
47765;DHT22;33529;49.242;8.670;2022-08-16T02:37:52;16.40;99.90
47765;DHT22;33529;49.242;8.670;2022-08-16T02:40:24;16.30;99.90
47765;DHT22;33529;49.242;8.670;2022-08-16T02:42:52;16.30;99.90
47765;DHT22;33529;49.242;8.670;2022-08-16T02:45:23;16.30;99.90
47765;DHT22;33529;49.242;8.670;2022-08-16T02:47:51;16.30;99.90
47765;DHT22;33529;49.242;8.670;2022-08-16T02:50:38;16.30;99.90
47765;DHT22;33529;49.242;8.670;2022-08-16T02:53:25;16.40;99.90
47765;DHT22;33529;49.242;8.670;2022-08-16T02:55:53;16.30;99.90
47765;DHT22;33529;49.242;8.670;2022-08-16T02:58:20;16.30;99.90
47765;DHT22;33529;49.242;8.670;2022-08-16T03:00:52;16.30;99.90
47765;DHT22;33529;49.242;8.670;2022-08-16T03:03:24;16.30;99.90
47765;DHT22;33529;49.242;8.670;2022-08-16T03:05:51;16.20;99.90
47765;DHT22;33529;49.242;8.670;2022-08-16T03:08:21;16.00;99.90
47765;DHT22;33529;49.242;8.670;2022-08-16T03:11:09;16.10;99.90
47765;DHT22;33529;49.242;8.670;2022-08-16T03:13:46;16.00;99.90
47765;DHT22;33529;49.242;8.670;2022-08-16T03:16:17;16.00;99.90
47765;DHT22;33529;49.242;8.670;2022-08-16T03:19:06;15.90;99.90
47765;DHT22;33529;49.242;8.670;2022-08-16T03:21:35;16.00;99.90
47765;DHT22;33529;49.242;8.670;2022-08-16T03:24:06;16.00;99.90
47765;DHT22;33529;49.242;8.670;2022-08-16T03:26:57;16.00;99.90
47765;DHT22;33529;49.242;8.670;2022-08-16T03:29:27;16.10;99.90
47765;DHT22;33529;49.242;8.670;2022-08-16T03:31:57;16.20;99.90
47765;DHT22;33529;49.242;8.670;2022-08-16T03:34:28;16.30;99.90
47765;DHT22;33529;49.242;8.670;2022-08-16T03:36:56;16.40;99.90
47765;DHT22;33529;49.242;8.670;2022-08-16T03:39:23;16.50;99.90
47765;DHT22;33529;49.242;8.670;2022-08-16T03:41:51;16.40;99.90
47765;DHT22;33529;49.242;8.670;2022-08-16T03:44:27;16.40;99.90
47765;DHT22;33529;49.242;8.670;2022-08-16T03:47:16;16.30;99.90
47765;DHT22;33529;49.242;8.670;2022-08-16T03:49:49;16.40;99.90
47765;DHT22;33529;49.242;8.670;2022-08-16T03:52:20;16.70;99.90
47765;DHT22;33529;49.242;8.670;2022-08-16T03:54:51;16.90;99.90
47765;DHT22;33529;49.242;8.670;2022-08-16T03:57:27;16.80;99.90
47765;DHT22;33529;49.242;8.670;2022-08-16T04:00:15;16.90;99.90
47765;DHT22;33529;49.242;8.670;2022-08-16T04:03:05;16.90;99.90
47765;DHT22;33529;49.242;8.670;2022-08-16T04:05:41;16.80;99.90
47765;DHT22;33529;49.242;8.670;2022-08-16T04:08:13;16.80;99.90
47765;DHT22;33529;49.242;8.670;2022-08-16T04:10:53;16.80;99.90
47765;DHT22;33529;49.242;8.670;2022-08-16T04:13:23;16.90;99.90
47765;DHT22;33529;49.242;8.670;2022-08-16T04:16:10;17.00;99.90
47765;DHT22;33529;49.242;8.670;2022-08-16T04:18:57;17.00;99.90
47765;DHT22;33529;49.242;8.670;2022-08-16T04:21:32;16.90;99.90
47765;DHT22;33529;49.242;8.670;2022-08-16T04:24:01;16.90;99.90
47765;DHT22;33529;49.242;8.670;2022-08-16T04:26:29;16.90;99.90
47765;DHT22;33529;49.242;8.670;2022-08-16T04:28:59;17.00;99.90
47765;DHT22;33529;49.242;8.670;2022-08-16T04:31:48;17.10;99.90
47765;DHT22;33529;49.242;8.670;2022-08-16T04:34:28;17.10;99.90
47765;DHT22;33529;49.242;8.670;2022-08-16T04:36:56;17.20;99.90
47765;DHT22;33529;49.242;8.670;2022-08-16T04:39:28;17.20;99.90
47765;DHT22;33529;49.242;8.670;2022-08-16T04:42:15;17.20;99.90
47765;DHT22;33529;49.242;8.670;2022-08-16T04:44:45;17.20;99.90
47765;DHT22;33529;49.242;8.670;2022-08-16T04:47:26;17.30;99.90
47765;DHT22;33529;49.242;8.670;2022-08-16T04:50:06;17.30;99.90
47765;DHT22;33529;49.242;8.670;2022-08-16T04:52:35;17.30;99.90
47765;DHT22;33529;49.242;8.670;2022-08-16T04:55:07;17.30;99.90
47765;DHT22;33529;49.242;8.670;2022-08-16T04:57:36;17.40;99.90
47765;DHT22;33529;49.242;8.670;2022-08-16T05:00:08;17.50;99.90
47765;DHT22;33529;49.242;8.670;2022-08-16T05:02:56;17.50;99.90
47765;DHT22;33529;49.242;8.670;2022-08-16T05:05:27;17.50;99.90
47765;DHT22;33529;49.242;8.670;2022-08-16T05:07:59;17.60;99.90
47765;DHT22;33529;49.242;8.670;2022-08-16T05:10:54;17.80;99.90
47765;DHT22;33529;49.242;8.670;2022-08-16T05:13:26;17.90;99.90
47765;DHT22;33529;49.242;8.670;2022-08-16T05:16:28;18.00;99.90
47765;DHT22;33529;49.242;8.670;2022-08-16T05:19:09;18.10;99.90
47765;DHT22;33529;49.242;8.670;2022-08-16T05:21:40;18.20;99.90
47765;DHT22;33529;49.242;8.670;2022-08-16T05:24:09;18.30;99.90
47765;DHT22;33529;49.242;8.670;2022-08-16T05:26:37;18.40;99.90
47765;DHT22;33529;49.242;8.670;2022-08-16T05:29:10;18.40;99.90
47765;DHT22;33529;49.242;8.670;2022-08-16T05:31:53;18.40;99.90
47765;DHT22;33529;49.242;8.670;2022-08-16T05:34:20;18.50;99.90
47765;DHT22;33529;49.242;8.670;2022-08-16T05:36:50;18.50;99.90
47765;DHT22;33529;49.242;8.670;2022-08-16T05:39:20;18.50;99.90
47765;DHT22;33529;49.242;8.670;2022-08-16T05:41:49;18.60;99.90
47765;DHT22;33529;49.242;8.670;2022-08-16T05:44:19;18.70;99.90
47765;DHT22;33529;49.242;8.670;2022-08-16T05:46:52;18.80;99.90
47765;DHT22;33529;49.242;8.670;2022-08-16T05:49:22;18.90;99.90
47765;DHT22;33529;49.242;8.670;2022-08-16T05:51:55;18.90;99.90
47765;DHT22;33529;49.242;8.670;2022-08-16T05:54:24;19.00;99.90
47765;DHT22;33529;49.242;8.670;2022-08-16T05:56:56;19.10;99.90
47765;DHT22;33529;49.242;8.670;2022-08-16T05:59:25;19.20;99.90
47765;DHT22;33529;49.242;8.670;2022-08-16T06:01:54;19.20;99.90
47765;DHT22;33529;49.242;8.670;2022-08-16T06:04:27;19.30;99.90
47765;DHT22;33529;49.242;8.670;2022-08-16T06:07:07;19.30;99.90
47765;DHT22;33529;49.242;8.670;2022-08-16T06:09:55;19.40;99.90
47765;DHT22;33529;49.242;8.670;2022-08-16T06:12:27;19.50;99.90
47765;DHT22;33529;49.242;8.670;2022-08-16T06:15:03;19.50;99.90
47765;DHT22;33529;49.242;8.670;2022-08-16T06:17:36;19.60;99.90
47765;DHT22;33529;49.242;8.670;2022-08-16T06:20:20;19.70;99.90
47765;DHT22;33529;49.242;8.670;2022-08-16T06:22:56;19.70;99.90
47765;DHT22;33529;49.242;8.670;2022-08-16T06:25:35;19.70;99.90
47765;DHT22;33529;49.242;8.670;2022-08-16T06:28:08;19.90;99.90
47765;DHT22;33529;49.242;8.670;2022-08-16T06:30:38;20.10;99.90
47765;DHT22;33529;49.242;8.670;2022-08-16T06:33:13;20.40;99.90
47765;DHT22;33529;49.242;8.670;2022-08-16T06:35:50;20.60;99.90
47765;DHT22;33529;49.242;8.670;2022-08-16T06:38:27;20.90;99.90
47765;DHT22;33529;49.242;8.670;2022-08-16T06:41:06;21.00;99.90
47765;DHT22;33529;49.242;8.670;2022-08-16T06:43:39;21.10;99.90
47765;DHT22;33529;49.242;8.670;2022-08-16T06:46:33;21.20;99.90
47765;DHT22;33529;49.242;8.670;2022-08-16T06:49:09;21.20;99.90
47765;DHT22;33529;49.242;8.670;2022-08-16T06:51:38;21.30;99.90
47765;DHT22;33529;49.242;8.670;2022-08-16T06:54:19;21.40;99.90
47765;DHT22;33529;49.242;8.670;2022-08-16T06:56:46;21.60;99.90
47765;DHT22;33529;49.242;8.670;2022-08-16T06:59:19;21.90;99.90
47765;DHT22;33529;49.242;8.670;2022-08-16T07:01:53;22.00;99.90
47765;DHT22;33529;49.242;8.670;2022-08-16T07:04:26;22.10;99.90
47765;DHT22;33529;49.242;8.670;2022-08-16T07:07:12;22.10;99.90
47765;DHT22;33529;49.242;8.670;2022-08-16T07:09:40;22.10;99.90
47765;DHT22;33529;49.242;8.670;2022-08-16T07:12:08;22.30;99.90
47765;DHT22;33529;49.242;8.670;2022-08-16T07:14:40;22.50;99.90
47765;DHT22;33529;49.242;8.670;2022-08-16T07:17:09;22.70;99.90
47765;DHT22;33529;49.242;8.670;2022-08-16T07:19:43;22.90;99.90
47765;DHT22;33529;49.242;8.670;2022-08-16T07:22:41;22.90;99.90
47765;DHT22;33529;49.242;8.670;2022-08-16T07:25:22;23.00;99.90
47765;DHT22;33529;49.242;8.670;2022-08-16T07:27:50;23.00;99.90
47765;DHT22;33529;49.242;8.670;2022-08-16T07:30:21;23.10;99.90
47765;DHT22;33529;49.242;8.670;2022-08-16T07:33:15;23.10;99.90
47765;DHT22;33529;49.242;8.670;2022-08-16T07:36:05;23.30;99.90
47765;DHT22;33529;49.242;8.670;2022-08-16T07:38:35;23.40;99.90
47765;DHT22;33529;49.242;8.670;2022-08-16T07:41:03;23.40;99.90
47765;DHT22;33529;49.242;8.670;2022-08-16T07:43:38;23.40;99.90
47765;DHT22;33529;49.242;8.670;2022-08-16T07:46:08;23.40;99.90
47765;DHT22;33529;49.242;8.670;2022-08-16T07:48:56;23.50;99.90
47765;DHT22;33529;49.242;8.670;2022-08-16T07:51:32;23.90;99.90
47765;DHT22;33529;49.242;8.670;2022-08-16T07:54:06;24.10;99.90
47765;DHT22;33529;49.242;8.670;2022-08-16T07:56:40;24.10;99.90
47765;DHT22;33529;49.242;8.670;2022-08-16T07:59:08;24.10;99.90
47765;DHT22;33529;49.242;8.670;2022-08-16T08:01:36;24.20;99.90
47765;DHT22;33529;49.242;8.670;2022-08-16T08:04:04;24.50;99.90
47765;DHT22;33529;49.242;8.670;2022-08-16T08:06:37;24.60;99.40
47765;DHT22;33529;49.242;8.670;2022-08-16T08:09:12;24.50;99.60
47765;DHT22;33529;49.242;8.670;2022-08-16T08:11:39;24.60;99.70
47765;DHT22;33529;49.242;8.670;2022-08-16T08:14:25;24.60;99.20
47765;DHT22;33529;49.242;8.670;2022-08-16T08:16:57;24.90;99.00
47765;DHT22;33529;49.242;8.670;2022-08-16T08:19:29;25.00;98.10
47765;DHT22;33529;49.242;8.670;2022-08-16T08:21:56;25.00;97.90
47765;DHT22;33529;49.242;8.670;2022-08-16T08:24:42;25.10;98.20
47765;DHT22;33529;49.242;8.670;2022-08-16T08:27:11;25.30;97.80
47765;DHT22;33529;49.242;8.670;2022-08-16T08:29:49;25.50;97.20
47765;DHT22;33529;49.242;8.670;2022-08-16T08:32:37;25.70;96.90
47765;DHT22;33529;49.242;8.670;2022-08-16T08:35:24;25.90;96.30
47765;DHT22;33529;49.242;8.670;2022-08-16T08:37:54;26.10;96.10
47765;DHT22;33529;49.242;8.670;2022-08-16T08:40:26;26.20;95.20
47765;DHT22;33529;49.242;8.670;2022-08-16T08:42:56;26.00;95.40
47765;DHT22;33529;49.242;8.670;2022-08-16T08:45:41;26.00;95.30
47765;DHT22;33529;49.242;8.670;2022-08-16T08:48:16;26.20;95.30
47765;DHT22;33529;49.242;8.670;2022-08-16T08:51:06;26.50;94.70
47765;DHT22;33529;49.242;8.670;2022-08-16T08:53:47;26.50;94.90
47765;DHT22;33529;49.242;8.670;2022-08-16T08:56:25;26.60;94.00
47765;DHT22;33529;49.242;8.670;2022-08-16T08:59:00;26.70;93.50
47765;DHT22;33529;49.242;8.670;2022-08-16T09:01:40;26.80;93.10
47765;DHT22;33529;49.242;8.670;2022-08-16T09:04:10;26.90;93.20
47765;DHT22;33529;49.242;8.670;2022-08-16T09:06:44;26.90;93.30
47765;DHT22;33529;49.242;8.670;2022-08-16T09:09:14;27.00;92.70
47765;DHT22;33529;49.242;8.670;2022-08-16T09:11:47;27.20;92.10
47765;DHT22;33529;49.242;8.670;2022-08-16T09:14:24;27.20;92.50
47765;DHT22;33529;49.242;8.670;2022-08-16T09:16:53;27.50;92.00
47765;DHT22;33529;49.242;8.670;2022-08-16T09:19:37;27.70;90.90
47765;DHT22;33529;49.242;8.670;2022-08-16T09:22:08;27.80;90.70
47765;DHT22;33529;49.242;8.670;2022-08-16T09:24:48;27.30;90.70
47765;DHT22;33529;49.242;8.670;2022-08-16T09:27:22;27.20;91.70
47765;DHT22;33529;49.242;8.670;2022-08-16T09:29:52;27.50;91.70
47765;DHT22;33529;49.242;8.670;2022-08-16T09:32:29;27.70;90.40
47765;DHT22;33529;49.242;8.670;2022-08-16T09:34:59;27.60;90.40
47765;DHT22;33529;49.242;8.670;2022-08-16T09:37:28;27.90;90.10
47765;DHT22;33529;49.242;8.670;2022-08-16T09:40:04;28.10;89.10
47765;DHT22;33529;49.242;8.670;2022-08-16T09:42:52;28.20;88.10
47765;DHT22;33529;49.242;8.670;2022-08-16T09:45:25;28.30;88.10
47765;DHT22;33529;49.242;8.670;2022-08-16T09:47:54;28.40;88.60
47765;DHT22;33529;49.242;8.670;2022-08-16T09:50:25;28.70;86.50
47765;DHT22;33529;49.242;8.670;2022-08-16T09:53:08;28.70;86.50
47765;DHT22;33529;49.242;8.670;2022-08-16T09:55:44;29.00;85.10
47765;DHT22;33529;49.242;8.670;2022-08-16T09:58:17;29.00;83.80
47765;DHT22;33529;49.242;8.670;2022-08-16T10:01:04;28.90;84.40
47765;DHT22;33529;49.242;8.670;2022-08-16T10:03:33;28.90;84.20
47765;DHT22;33529;49.242;8.670;2022-08-16T10:06:00;29.10;84.10
47765;DHT22;33529;49.242;8.670;2022-08-16T10:08:27;29.20;83.60
47765;DHT22;33529;49.242;8.670;2022-08-16T10:10:54;28.80;82.20
47765;DHT22;33529;49.242;8.670;2022-08-16T10:13:49;28.80;83.50
47765;DHT22;33529;49.242;8.670;2022-08-16T10:16:16;28.60;82.60
47765;DHT22;33529;49.242;8.670;2022-08-16T10:18:47;28.50;84.80
47765;DHT22;33529;49.242;8.670;2022-08-16T10:21:30;28.70;83.10
47765;DHT22;33529;49.242;8.670;2022-08-16T10:23:57;28.70;81.90
47765;DHT22;33529;49.242;8.670;2022-08-16T10:26:25;28.90;81.60
47765;DHT22;33529;49.242;8.670;2022-08-16T10:29:12;29.10;81.20
47765;DHT22;33529;49.242;8.670;2022-08-16T10:31:46;29.20;81.50
47765;DHT22;33529;49.242;8.670;2022-08-16T10:34:19;28.90;82.40
47765;DHT22;33529;49.242;8.670;2022-08-16T10:36:59;29.30;82.70
47765;DHT22;33529;49.242;8.670;2022-08-16T10:39:27;29.70;81.60
47765;DHT22;33529;49.242;8.670;2022-08-16T10:42:09;29.80;80.60
47765;DHT22;33529;49.242;8.670;2022-08-16T10:44:39;30.10;79.40
47765;DHT22;33529;49.242;8.670;2022-08-16T10:47:08;30.20;78.00
47765;DHT22;33529;49.242;8.670;2022-08-16T10:49:37;30.20;79.10
47765;DHT22;33529;49.242;8.670;2022-08-16T10:52:06;30.20;78.30
47765;DHT22;33529;49.242;8.670;2022-08-16T10:54:45;30.10;77.40
47765;DHT22;33529;49.242;8.670;2022-08-16T10:57:32;30.10;77.10
47765;DHT22;33529;49.242;8.670;2022-08-16T11:00:00;30.20;77.80
47765;DHT22;33529;49.242;8.670;2022-08-16T11:02:47;30.20;77.80
47765;DHT22;33529;49.242;8.670;2022-08-16T11:05:35;30.40;76.40
47765;DHT22;33529;49.242;8.670;2022-08-16T11:08:23;30.30;75.70
47765;DHT22;33529;49.242;8.670;2022-08-16T11:11:03;30.20;76.40
47765;DHT22;33529;49.242;8.670;2022-08-16T11:13:33;30.20;75.60
47765;DHT22;33529;49.242;8.670;2022-08-16T11:16:20;30.30;76.20
47765;DHT22;33529;49.242;8.670;2022-08-16T11:18:51;30.10;76.10
47765;DHT22;33529;49.242;8.670;2022-08-16T11:21:32;30.00;77.60
47765;DHT22;33529;49.242;8.670;2022-08-16T11:24:00;30.20;76.90
47765;DHT22;33529;49.242;8.670;2022-08-16T11:26:28;30.40;77.20
47765;DHT22;33529;49.242;8.670;2022-08-16T11:28:56;30.50;76.20
47765;DHT22;33529;49.242;8.670;2022-08-16T11:31:40;30.20;76.40
47765;DHT22;33529;49.242;8.670;2022-08-16T11:34:15;30.00;75.50
47765;DHT22;33529;49.242;8.670;2022-08-16T11:36:46;29.80;76.30
47765;DHT22;33529;49.242;8.670;2022-08-16T11:39:28;29.80;77.00
47765;DHT22;33529;49.242;8.670;2022-08-16T11:41:57;29.90;75.90
47765;DHT22;33529;49.242;8.670;2022-08-16T11:44:25;29.70;75.20
47765;DHT22;33529;49.242;8.670;2022-08-16T11:47:12;29.40;75.50
47765;DHT22;33529;49.242;8.670;2022-08-16T11:49:39;29.50;74.70
47765;DHT22;33529;49.242;8.670;2022-08-16T11:52:06;29.20;75.70
47765;DHT22;33529;49.242;8.670;2022-08-16T11:54:33;29.40;75.40
47765;DHT22;33529;49.242;8.670;2022-08-16T11:57:03;29.50;76.30
47765;DHT22;33529;49.242;8.670;2022-08-16T11:59:36;29.50;74.90
47765;DHT22;33529;49.242;8.670;2022-08-16T12:02:07;29.40;75.40
47765;DHT22;33529;49.242;8.670;2022-08-16T12:04:55;29.30;76.30
47765;DHT22;33529;49.242;8.670;2022-08-16T12:07:22;29.60;76.20
47765;DHT22;33529;49.242;8.670;2022-08-16T12:09:51;29.50;75.20
47765;DHT22;33529;49.242;8.670;2022-08-16T12:12:20;29.70;75.50
47765;DHT22;33529;49.242;8.670;2022-08-16T12:14:49;29.50;74.80
47765;DHT22;33529;49.242;8.670;2022-08-16T12:17:26;29.30;74.50
47765;DHT22;33529;49.242;8.670;2022-08-16T12:20:01;29.10;75.00
47765;DHT22;33529;49.242;8.670;2022-08-16T12:22:30;29.10;75.80
47765;DHT22;33529;49.242;8.670;2022-08-16T12:25:08;29.10;75.90
47765;DHT22;33529;49.242;8.670;2022-08-16T12:27:36;29.30;75.20
47765;DHT22;33529;49.242;8.670;2022-08-16T12:30:06;29.50;75.20
47765;DHT22;33529;49.242;8.670;2022-08-16T12:32:47;29.70;74.80
47765;DHT22;33529;49.242;8.670;2022-08-16T12:35:20;29.70;73.90
47765;DHT22;33529;49.242;8.670;2022-08-16T12:37:48;29.70;74.40
47765;DHT22;33529;49.242;8.670;2022-08-16T12:40:25;29.80;74.90
47765;DHT22;33529;49.242;8.670;2022-08-16T12:42:56;29.80;73.80
47765;DHT22;33529;49.242;8.670;2022-08-16T12:45:33;29.70;73.30
47765;DHT22;33529;49.242;8.670;2022-08-16T12:48:03;29.50;73.90
47765;DHT22;33529;49.242;8.670;2022-08-16T12:51:03;29.50;73.20
47765;DHT22;33529;49.242;8.670;2022-08-16T12:53:44;29.50;72.90
47765;DHT22;33529;49.242;8.670;2022-08-16T12:56:12;29.50;73.80
47765;DHT22;33529;49.242;8.670;2022-08-16T12:58:40;29.80;73.10
47765;DHT22;33529;49.242;8.670;2022-08-16T13:01:21;30.20;73.50
47765;DHT22;33529;49.242;8.670;2022-08-16T13:03:50;30.50;71.20
47765;DHT22;33529;49.242;8.670;2022-08-16T13:06:36;30.90;71.10
47765;DHT22;33529;49.242;8.670;2022-08-16T13:09:04;31.00;70.50
47765;DHT22;33529;49.242;8.670;2022-08-16T13:11:54;31.20;69.60
47765;DHT22;33529;49.242;8.670;2022-08-16T13:14:35;31.10;70.10
47765;DHT22;33529;49.242;8.670;2022-08-16T13:17:06;30.80;68.80
47765;DHT22;33529;49.242;8.670;2022-08-16T13:19:35;30.70;69.30
47765;DHT22;33529;49.242;8.670;2022-08-16T13:22:22;30.50;68.80
47765;DHT22;33529;49.242;8.670;2022-08-16T13:24:51;30.30;69.40
47765;DHT22;33529;49.242;8.670;2022-08-16T13:27:18;30.20;69.20
47765;DHT22;33529;49.242;8.670;2022-08-16T13:30:00;30.10;69.60
47765;DHT22;33529;49.242;8.670;2022-08-16T13:32:36;30.10;69.50
47765;DHT22;33529;49.242;8.670;2022-08-16T13:35:07;29.90;70.20
47765;DHT22;33529;49.242;8.670;2022-08-16T13:37:37;29.80;69.50
47765;DHT22;33529;49.242;8.670;2022-08-16T13:40:07;29.80;70.30
47765;DHT22;33529;49.242;8.670;2022-08-16T13:42:45;29.80;70.30
47765;DHT22;33529;49.242;8.670;2022-08-16T13:45:14;30.10;70.60
47765;DHT22;33529;49.242;8.670;2022-08-16T13:47:41;30.30;69.70
47765;DHT22;33529;49.242;8.670;2022-08-16T13:50:09;30.40;68.50
47765;DHT22;33529;49.242;8.670;2022-08-16T13:52:37;30.30;67.20
47765;DHT22;33529;49.242;8.670;2022-08-16T13:55:16;30.10;67.70
47765;DHT22;33529;49.242;8.670;2022-08-16T13:57:43;30.10;67.70
47765;DHT22;33529;49.242;8.670;2022-08-16T14:00:30;30.00;67.90
47765;DHT22;33529;49.242;8.670;2022-08-16T14:02:57;30.10;69.40
47765;DHT22;33529;49.242;8.670;2022-08-16T14:05:25;30.20;69.10
47765;DHT22;33529;49.242;8.670;2022-08-16T14:07:53;30.20;69.20
47765;DHT22;33529;49.242;8.670;2022-08-16T14:10:20;30.40;68.10
47765;DHT22;33529;49.242;8.670;2022-08-16T14:12:47;30.60;66.50
47765;DHT22;33529;49.242;8.670;2022-08-16T14:15:15;30.70;67.20
47765;DHT22;33529;49.242;8.670;2022-08-16T14:17:42;30.50;65.70
47765;DHT22;33529;49.242;8.670;2022-08-16T14:20:29;30.50;67.50
47765;DHT22;33529;49.242;8.670;2022-08-16T14:22:56;30.60;67.40
47765;DHT22;33529;49.242;8.670;2022-08-16T14:25:25;30.60;66.50
47765;DHT22;33529;49.242;8.670;2022-08-16T14:27:53;30.80;66.60
47765;DHT22;33529;49.242;8.670;2022-08-16T14:30:22;30.70;67.70
47765;DHT22;33529;49.242;8.670;2022-08-16T14:32:49;30.80;67.10
47765;DHT22;33529;49.242;8.670;2022-08-16T14:35:27;30.60;67.00
47765;DHT22;33529;49.242;8.670;2022-08-16T14:38:14;30.50;66.50
47765;DHT22;33529;49.242;8.670;2022-08-16T14:40:45;30.40;67.40
47765;DHT22;33529;49.242;8.670;2022-08-16T14:43:21;30.30;67.50
47765;DHT22;33529;49.242;8.670;2022-08-16T14:45:48;30.20;68.00
47765;DHT22;33529;49.242;8.670;2022-08-16T14:48:17;30.10;66.90
47765;DHT22;33529;49.242;8.670;2022-08-16T14:50:51;30.10;68.10
47765;DHT22;33529;49.242;8.670;2022-08-16T14:53:18;29.80;66.90
47765;DHT22;33529;49.242;8.670;2022-08-16T14:55:45;29.70;68.30
47765;DHT22;33529;49.242;8.670;2022-08-16T14:58:14;29.70;66.90
47765;DHT22;33529;49.242;8.670;2022-08-16T15:00:47;29.80;66.80
47765;DHT22;33529;49.242;8.670;2022-08-16T15:03:17;30.10;66.70
47765;DHT22;33529;49.242;8.670;2022-08-16T15:05:46;30.30;66.60
47765;DHT22;33529;49.242;8.670;2022-08-16T15:08:14;30.90;66.80
47765;DHT22;33529;49.242;8.670;2022-08-16T15:10:45;30.90;65.70
47765;DHT22;33529;49.242;8.670;2022-08-16T15:13:13;30.80;66.60
47765;DHT22;33529;49.242;8.670;2022-08-16T15:15:41;30.90;65.80
47765;DHT22;33529;49.242;8.670;2022-08-16T15:18:09;31.80;64.30
47765;DHT22;33529;49.242;8.670;2022-08-16T15:20:39;33.20;63.80
47765;DHT22;33529;49.242;8.670;2022-08-16T15:23:08;34.60;61.80
47765;DHT22;33529;49.242;8.670;2022-08-16T15:25:41;35.40;59.70
47765;DHT22;33529;49.242;8.670;2022-08-16T15:28:10;36.70;57.80
47765;DHT22;33529;49.242;8.670;2022-08-16T15:31:00;37.80;56.20
47765;DHT22;33529;49.242;8.670;2022-08-16T15:33:32;38.20;54.80
47765;DHT22;33529;49.242;8.670;2022-08-16T15:36:00;38.40;53.80
47765;DHT22;33529;49.242;8.670;2022-08-16T15:38:28;37.70;54.20
47765;DHT22;33529;49.242;8.670;2022-08-16T15:44:20;37.90;54.40
47765;DHT22;33529;49.242;8.670;2022-08-16T15:46:49;37.90;53.80
47765;DHT22;33529;49.242;8.670;2022-08-16T15:49:24;37.40;53.60
47765;DHT22;33529;49.242;8.670;2022-08-16T15:52:12;38.30;54.00
47765;DHT22;33529;49.242;8.670;2022-08-16T15:54:42;39.40;51.50
47765;DHT22;33529;49.242;8.670;2022-08-16T15:57:18;39.20;50.40
47765;DHT22;33529;49.242;8.670;2022-08-16T15:59:45;38.40;50.60
47765;DHT22;33529;49.242;8.670;2022-08-16T16:02:24;38.20;51.50
47765;DHT22;33529;49.242;8.670;2022-08-16T16:05:01;38.30;51.90
47765;DHT22;33529;49.242;8.670;2022-08-16T16:07:31;37.90;51.40
47765;DHT22;33529;49.242;8.670;2022-08-16T16:10:03;37.90;51.60
47765;DHT22;33529;49.242;8.670;2022-08-16T16:12:34;38.40;51.00
47765;DHT22;33529;49.242;8.670;2022-08-16T16:15:23;38.70;51.10
47765;DHT22;33529;49.242;8.670;2022-08-16T16:17:52;38.40;49.80
47765;DHT22;33529;49.242;8.670;2022-08-16T16:20:22;37.40;51.10
47765;DHT22;33529;49.242;8.670;2022-08-16T16:22:50;36.30;51.90